sensor_id;sensor_type;location;lat;lon;timestamp;temperature;humidity
22623;DHT22;11478;51.094;7.030;2024-03-17T00:02:23;3.40;99.90
22623;DHT22;11478;51.094;7.030;2024-03-17T00:04:50;3.40;99.90
22623;DHT22;11478;51.094;7.030;2024-03-17T00:07:16;3.40;99.90
22623;DHT22;11478;51.094;7.030;2024-03-17T00:09:57;3.30;99.90
22623;DHT22;11478;51.094;7.030;2024-03-17T00:12:23;3.30;99.90
22623;DHT22;11478;51.094;7.030;2024-03-17T00:14:49;3.30;99.90
22623;DHT22;11478;51.094;7.030;2024-03-17T00:17:15;3.30;99.90
22623;DHT22;11478;51.094;7.030;2024-03-17T00:19:41;3.20;99.90
22623;DHT22;11478;51.094;7.030;2024-03-17T00:22:07;3.20;99.90
22623;DHT22;11478;51.094;7.030;2024-03-17T00:24:43;3.20;99.90
22623;DHT22;11478;51.094;7.030;2024-03-17T00:27:12;3.20;99.90
22623;DHT22;11478;51.094;7.030;2024-03-17T00:29:39;3.10;99.90
22623;DHT22;11478;51.094;7.030;2024-03-17T00:32:06;3.10;99.90
22623;DHT22;11478;51.094;7.030;2024-03-17T00:34:38;3.10;99.90
22623;DHT22;11478;51.094;7.030;2024-03-17T00:37:04;3.10;99.90
22623;DHT22;11478;51.094;7.030;2024-03-17T00:39:30;3.10;99.90
22623;DHT22;11478;51.094;7.030;2024-03-17T00:41:57;3.00;99.90
22623;DHT22;11478;51.094;7.030;2024-03-17T00:44:29;3.00;99.90
22623;DHT22;11478;51.094;7.030;2024-03-17T00:46:55;3.00;99.90
22623;DHT22;11478;51.094;7.030;2024-03-17T00:49:24;3.00;99.90
22623;DHT22;11478;51.094;7.030;2024-03-17T00:51:50;3.00;99.90
22623;DHT22;11478;51.094;7.030;2024-03-17T00:54:16;3.00;99.90
22623;DHT22;11478;51.094;7.030;2024-03-17T00:56:43;3.00;99.90
22623;DHT22;11478;51.094;7.030;2024-03-17T00:59:09;2.90;99.90
22623;DHT22;11478;51.094;7.030;2024-03-17T01:01:35;2.90;99.90
22623;DHT22;11478;51.094;7.030;2024-03-17T01:04:01;2.90;99.90
22623;DHT22;11478;51.094;7.030;2024-03-17T01:06:27;3.00;99.90
22623;DHT22;11478;51.094;7.030;2024-03-17T01:08:54;3.00;99.90
22623;DHT22;11478;51.094;7.030;2024-03-17T01:11:20;3.00;99.90
22623;DHT22;11478;51.094;7.030;2024-03-17T01:13:50;3.00;99.90
22623;DHT22;11478;51.094;7.030;2024-03-17T01:16:16;3.00;99.90
22623;DHT22;11478;51.094;7.030;2024-03-17T01:18:42;3.00;99.90
22623;DHT22;11478;51.094;7.030;2024-03-17T01:21:20;2.90;99.90
22623;DHT22;11478;51.094;7.030;2024-03-17T01:23:48;2.90;99.90
22623;DHT22;11478;51.094;7.030;2024-03-17T01:26:15;2.90;99.90
22623;DHT22;11478;51.094;7.030;2024-03-17T01:28:40;2.90;99.90
22623;DHT22;11478;51.094;7.030;2024-03-17T01:31:11;2.90;99.90
22623;DHT22;11478;51.094;7.030;2024-03-17T01:33:37;2.90;99.90
22623;DHT22;11478;51.094;7.030;2024-03-17T01:36:04;2.90;99.90
22623;DHT22;11478;51.094;7.030;2024-03-17T01:38:30;2.80;99.90
22623;DHT22;11478;51.094;7.030;2024-03-17T01:40:59;2.80;99.90
22623;DHT22;11478;51.094;7.030;2024-03-17T01:43:26;2.80;99.90
22623;DHT22;11478;51.094;7.030;2024-03-17T01:45:54;2.80;99.90
22623;DHT22;11478;51.094;7.030;2024-03-17T01:48:19;2.70;99.90
22623;DHT22;11478;51.094;7.030;2024-03-17T01:50:50;2.70;99.90
22623;DHT22;11478;51.094;7.030;2024-03-17T01:53:17;2.70;99.90
22623;DHT22;11478;51.094;7.030;2024-03-17T01:55:44;2.70;99.90
22623;DHT22;11478;51.094;7.030;2024-03-17T01:58:12;2.70;99.90
22623;DHT22;11478;51.094;7.030;2024-03-17T02:00:39;2.60;99.90
22623;DHT22;11478;51.094;7.030;2024-03-17T02:03:09;2.60;99.90
22623;DHT22;11478;51.094;7.030;2024-03-17T02:05:39;2.60;99.90
22623;DHT22;11478;51.094;7.030;2024-03-17T02:08:09;2.60;99.90
22623;DHT22;11478;51.094;7.030;2024-03-17T02:10:37;2.50;99.90
22623;DHT22;11478;51.094;7.030;2024-03-17T02:13:03;2.60;99.90
22623;DHT22;11478;51.094;7.030;2024-03-17T02:15:30;2.50;99.90
22623;DHT22;11478;51.094;7.030;2024-03-17T02:17:56;2.50;99.90
22623;DHT22;11478;51.094;7.030;2024-03-17T02:20:24;2.50;99.90
22623;DHT22;11478;51.094;7.030;2024-03-17T02:23:10;2.40;99.90
22623;DHT22;11478;51.094;7.030;2024-03-17T02:25:36;2.40;99.90
22623;DHT22;11478;51.094;7.030;2024-03-17T02:28:02;2.40;99.90
22623;DHT22;11478;51.094;7.030;2024-03-17T02:30:28;2.40;99.90
22623;DHT22;11478;51.094;7.030;2024-03-17T02:32:55;2.40;99.90
22623;DHT22;11478;51.094;7.030;2024-03-17T02:35:24;2.30;99.90
22623;DHT22;11478;51.094;7.030;2024-03-17T02:37:50;2.30;99.90
22623;DHT22;11478;51.094;7.030;2024-03-17T02:40:18;2.30;99.90
22623;DHT22;11478;51.094;7.030;2024-03-17T02:42:45;2.20;99.90
22623;DHT22;11478;51.094;7.030;2024-03-17T02:45:17;2.20;99.90
22623;DHT22;11478;51.094;7.030;2024-03-17T02:47:42;2.20;99.90
22623;DHT22;11478;51.094;7.030;2024-03-17T02:50:09;2.20;99.90
22623;DHT22;11478;51.094;7.030;2024-03-17T02:52:35;2.20;99.90
22623;DHT22;11478;51.094;7.030;2024-03-17T02:55:03;2.10;99.90
22623;DHT22;11478;51.094;7.030;2024-03-17T02:57:29;2.10;99.90
22623;DHT22;11478;51.094;7.030;2024-03-17T03:00:00;2.10;99.90
22623;DHT22;11478;51.094;7.030;2024-03-17T03:02:30;2.10;99.90
22623;DHT22;11478;51.094;7.030;2024-03-17T03:04:55;2.00;99.90
22623;DHT22;11478;51.094;7.030;2024-03-17T03:07:21;2.00;99.90
22623;DHT22;11478;51.094;7.030;2024-03-17T03:09:47;2.00;99.90
22623;DHT22;11478;51.094;7.030;2024-03-17T03:12:15;2.00;99.90
22623;DHT22;11478;51.094;7.030;2024-03-17T03:14:41;2.00;99.90
22623;DHT22;11478;51.094;7.030;2024-03-17T03:17:17;2.00;99.90
22623;DHT22;11478;51.094;7.030;2024-03-17T03:19:43;1.90;99.90
22623;DHT22;11478;51.094;7.030;2024-03-17T03:22:10;1.90;99.90
22623;DHT22;11478;51.094;7.030;2024-03-17T03:24:36;1.90;99.90
22623;DHT22;11478;51.094;7.030;2024-03-17T03:27:10;1.90;99.90
22623;DHT22;11478;51.094;7.030;2024-03-17T03:29:35;1.90;99.90
22623;DHT22;11478;51.094;7.030;2024-03-17T03:32:03;1.80;99.90
22623;DHT22;11478;51.094;7.030;2024-03-17T03:34:28;1.80;99.90
22623;DHT22;11478;51.094;7.030;2024-03-17T03:37:03;1.80;99.90
22623;DHT22;11478;51.094;7.030;2024-03-17T03:39:28;1.80;99.90
22623;DHT22;11478;51.094;7.030;2024-03-17T03:42:09;1.80;99.90
22623;DHT22;11478;51.094;7.030;2024-03-17T03:44:35;1.70;99.90
22623;DHT22;11478;51.094;7.030;2024-03-17T03:47:02;1.70;99.90
22623;DHT22;11478;51.094;7.030;2024-03-17T03:49:28;1.70;99.90
22623;DHT22;11478;51.094;7.030;2024-03-17T03:51:55;1.70;99.90
22623;DHT22;11478;51.094;7.030;2024-03-17T03:54:21;1.60;99.90
22623;DHT22;11478;51.094;7.030;2024-03-17T03:56:51;1.70;99.90
22623;DHT22;11478;51.094;7.030;2024-03-17T03:59:16;1.60;99.90
22623;DHT22;11478;51.094;7.030;2024-03-17T04:01:45;1.60;99.90
22623;DHT22;11478;51.094;7.030;2024-03-17T04:04:13;1.60;99.90
22623;DHT22;11478;51.094;7.030;2024-03-17T04:06:44;1.60;99.90
22623;DHT22;11478;51.094;7.030;2024-03-17T04:09:10;1.60;99.90
22623;DHT22;11478;51.094;7.030;2024-03-17T04:11:36;1.60;99.90
22623;DHT22;11478;51.094;7.030;2024-03-17T04:14:02;1.50;99.90
22623;DHT22;11478;51.094;7.030;2024-03-17T04:16:34;1.50;99.90
22623;DHT22;11478;51.094;7.030;2024-03-17T04:19:00;1.50;99.90
22623;DHT22;11478;51.094;7.030;2024-03-17T04:21:30;1.50;99.90
22623;DHT22;11478;51.094;7.030;2024-03-17T04:23:55;1.50;99.90
22623;DHT22;11478;51.094;7.030;2024-03-17T04:26:22;1.50;99.90
22623;DHT22;11478;51.094;7.030;2024-03-17T04:28:48;1.50;99.90
22623;DHT22;11478;51.094;7.030;2024-03-17T04:31:15;1.50;99.90
22623;DHT22;11478;51.094;7.030;2024-03-17T04:33:41;1.50;99.90
22623;DHT22;11478;51.094;7.030;2024-03-17T04:36:14;1.40;99.90
22623;DHT22;11478;51.094;7.030;2024-03-17T04:38:39;1.50;99.90
22623;DHT22;11478;51.094;7.030;2024-03-17T04:41:06;1.40;99.90
22623;DHT22;11478;51.094;7.030;2024-03-17T04:43:34;1.40;99.90
22623;DHT22;11478;51.094;7.030;2024-03-17T04:46:04;1.40;99.90
22623;DHT22;11478;51.094;7.030;2024-03-17T04:48:32;1.40;99.90
22623;DHT22;11478;51.094;7.030;2024-03-17T04:50:59;1.40;99.90
22623;DHT22;11478;51.094;7.030;2024-03-17T04:53:26;1.40;99.90
22623;DHT22;11478;51.094;7.030;2024-03-17T04:58:26;1.30;99.90
22623;DHT22;11478;51.094;7.030;2024-03-17T05:00:51;1.30;99.90
22623;DHT22;11478;51.094;7.030;2024-03-17T05:03:17;1.30;99.90
22623;DHT22;11478;51.094;7.030;2024-03-17T05:05:43;1.30;99.90
22623;DHT22;11478;51.094;7.030;2024-03-17T05:08:09;1.30;99.90
22623;DHT22;11478;51.094;7.030;2024-03-17T05:10:36;1.30;99.90
22623;DHT22;11478;51.094;7.030;2024-03-17T05:13:02;1.40;99.90
22623;DHT22;11478;51.094;7.030;2024-03-17T05:15:28;1.30;99.90
22623;DHT22;11478;51.094;7.030;2024-03-17T05:17:54;1.40;99.90
22623;DHT22;11478;51.094;7.030;2024-03-17T05:20:20;1.40;99.90
22623;DHT22;11478;51.094;7.030;2024-03-17T05:22:46;1.40;99.90
22623;DHT22;11478;51.094;7.030;2024-03-17T05:25:15;1.50;99.90
22623;DHT22;11478;51.094;7.030;2024-03-17T05:27:41;1.50;99.90
22623;DHT22;11478;51.094;7.030;2024-03-17T05:30:15;1.60;99.90
22623;DHT22;11478;51.094;7.030;2024-03-17T05:32:41;1.60;99.90
22623;DHT22;11478;51.094;7.030;2024-03-17T05:35:08;1.60;99.90
22623;DHT22;11478;51.094;7.030;2024-03-17T05:37:35;1.60;99.90
22623;DHT22;11478;51.094;7.030;2024-03-17T05:40:02;1.70;99.90
22623;DHT22;11478;51.094;7.030;2024-03-17T05:42:28;1.70;99.90
22623;DHT22;11478;51.094;7.030;2024-03-17T05:44:54;1.70;99.90
22623;DHT22;11478;51.094;7.030;2024-03-17T05:47:20;1.80;99.90
22623;DHT22;11478;51.094;7.030;2024-03-17T05:49:46;1.80;99.90
22623;DHT22;11478;51.094;7.030;2024-03-17T05:52:12;1.80;99.90
22623;DHT22;11478;51.094;7.030;2024-03-17T05:54:38;1.90;99.90
22623;DHT22;11478;51.094;7.030;2024-03-17T05:57:11;1.90;99.90
22623;DHT22;11478;51.094;7.030;2024-03-17T05:59:39;1.90;99.90
22623;DHT22;11478;51.094;7.030;2024-03-17T06:02:09;2.00;99.90
22623;DHT22;11478;51.094;7.030;2024-03-17T06:04:35;2.00;99.90
22623;DHT22;11478;51.094;7.030;2024-03-17T06:07:15;2.00;99.90
22623;DHT22;11478;51.094;7.030;2024-03-17T06:09:40;2.00;99.90
22623;DHT22;11478;51.094;7.030;2024-03-17T06:12:07;2.00;99.90
22623;DHT22;11478;51.094;7.030;2024-03-17T06:14:38;2.10;99.90
22623;DHT22;11478;51.094;7.030;2024-03-17T06:17:14;2.10;99.90
22623;DHT22;11478;51.094;7.030;2024-03-17T06:19:40;2.10;99.90
22623;DHT22;11478;51.094;7.030;2024-03-17T06:22:06;2.20;99.90
22623;DHT22;11478;51.094;7.030;2024-03-17T06:24:34;2.30;99.90
22623;DHT22;11478;51.094;7.030;2024-03-17T06:27:03;2.30;99.90
22623;DHT22;11478;51.094;7.030;2024-03-17T06:29:32;2.40;99.90
22623;DHT22;11478;51.094;7.030;2024-03-17T06:31:58;2.50;99.90
22623;DHT22;11478;51.094;7.030;2024-03-17T06:34:26;2.60;99.90
22623;DHT22;11478;51.094;7.030;2024-03-17T06:36:53;2.80;99.90
22623;DHT22;11478;51.094;7.030;2024-03-17T06:39:18;2.90;99.90
22623;DHT22;11478;51.094;7.030;2024-03-17T06:41:48;3.20;99.90
22623;DHT22;11478;51.094;7.030;2024-03-17T06:44:14;3.70;99.90
22623;DHT22;11478;51.094;7.030;2024-03-17T06:46:42;4.30;99.90
22623;DHT22;11478;51.094;7.030;2024-03-17T06:49:09;4.80;99.90
22623;DHT22;11478;51.094;7.030;2024-03-17T06:51:39;5.60;99.90
22623;DHT22;11478;51.094;7.030;2024-03-17T06:54:05;6.40;99.90
22623;DHT22;11478;51.094;7.030;2024-03-17T06:56:33;6.80;99.90
22623;DHT22;11478;51.094;7.030;2024-03-17T06:58:59;6.70;99.90
22623;DHT22;11478;51.094;7.030;2024-03-17T07:01:28;6.50;99.90
22623;DHT22;11478;51.094;7.030;2024-03-17T07:03:56;6.60;99.90
22623;DHT22;11478;51.094;7.030;2024-03-17T07:06:21;7.00;99.90
22623;DHT22;11478;51.094;7.030;2024-03-17T07:08:49;7.20;99.90
22623;DHT22;11478;51.094;7.030;2024-03-17T07:11:15;7.00;99.90
22623;DHT22;11478;51.094;7.030;2024-03-17T07:13:43;6.90;99.90
22623;DHT22;11478;51.094;7.030;2024-03-17T07:16:09;6.70;99.90
22623;DHT22;11478;51.094;7.030;2024-03-17T07:18:35;6.80;99.90
22623;DHT22;11478;51.094;7.030;2024-03-17T07:21:04;7.10;99.90
22623;DHT22;11478;51.094;7.030;2024-03-17T07:23:31;7.40;99.90
22623;DHT22;11478;51.094;7.030;2024-03-17T07:26:01;7.50;99.90
22623;DHT22;11478;51.094;7.030;2024-03-17T07:28:28;7.40;99.90
22623;DHT22;11478;51.094;7.030;2024-03-17T07:30:59;7.20;99.90
22623;DHT22;11478;51.094;7.030;2024-03-17T07:33:30;7.10;99.90
22623;DHT22;11478;51.094;7.030;2024-03-17T07:36:03;7.00;99.90
22623;DHT22;11478;51.094;7.030;2024-03-17T07:38:34;7.00;99.90
22623;DHT22;11478;51.094;7.030;2024-03-17T07:41:07;7.30;99.90
22623;DHT22;11478;51.094;7.030;2024-03-17T07:43:39;7.70;99.90
22623;DHT22;11478;51.094;7.030;2024-03-17T07:46:14;7.80;99.90
22623;DHT22;11478;51.094;7.030;2024-03-17T07:48:41;8.20;99.90
22623;DHT22;11478;51.094;7.030;2024-03-17T07:51:31;9.20;99.90
22623;DHT22;11478;51.094;7.030;2024-03-17T07:54:00;11.10;99.90
22623;DHT22;11478;51.094;7.030;2024-03-17T07:56:26;12.80;99.90
22623;DHT22;11478;51.094;7.030;2024-03-17T07:58:54;14.10;99.90
22623;DHT22;11478;51.094;7.030;2024-03-17T08:01:20;14.90;99.90
22623;DHT22;11478;51.094;7.030;2024-03-17T08:03:56;15.60;99.90
22623;DHT22;11478;51.094;7.030;2024-03-17T08:06:36;16.00;99.90
22623;DHT22;11478;51.094;7.030;2024-03-17T08:09:03;15.60;99.90
22623;DHT22;11478;51.094;7.030;2024-03-17T08:11:32;15.30;99.90
22623;DHT22;11478;51.094;7.030;2024-03-17T08:13:58;15.30;99.90
22623;DHT22;11478;51.094;7.030;2024-03-17T08:16:30;14.70;99.90
22623;DHT22;11478;51.094;7.030;2024-03-17T08:18:58;14.30;99.90
22623;DHT22;11478;51.094;7.030;2024-03-17T08:21:29;14.10;99.90
22623;DHT22;11478;51.094;7.030;2024-03-17T08:23:55;14.50;99.90
22623;DHT22;11478;51.094;7.030;2024-03-17T08:26:29;14.50;99.90
22623;DHT22;11478;51.094;7.030;2024-03-17T08:28:55;14.40;99.90
22623;DHT22;11478;51.094;7.030;2024-03-17T08:31:24;14.10;99.90
22623;DHT22;11478;51.094;7.030;2024-03-17T08:33:53;13.40;99.90
22623;DHT22;11478;51.094;7.030;2024-03-17T08:36:19;12.70;99.90
22623;DHT22;11478;51.094;7.030;2024-03-17T08:38:46;12.20;99.90
22623;DHT22;11478;51.094;7.030;2024-03-17T08:41:31;12.00;99.90
22623;DHT22;11478;51.094;7.030;2024-03-17T08:43:57;12.80;99.90
22623;DHT22;11478;51.094;7.030;2024-03-17T08:46:28;14.10;99.90
22623;DHT22;11478;51.094;7.030;2024-03-17T08:48:54;15.40;99.90
22623;DHT22;11478;51.094;7.030;2024-03-17T08:51:38;15.90;99.90
22623;DHT22;11478;51.094;7.030;2024-03-17T08:54:04;15.80;99.90
22623;DHT22;11478;51.094;7.030;2024-03-17T08:56:42;15.70;99.90
22623;DHT22;11478;51.094;7.030;2024-03-17T08:59:08;15.90;99.90
22623;DHT22;11478;51.094;7.030;2024-03-17T09:01:38;15.80;99.90
22623;DHT22;11478;51.094;7.030;2024-03-17T09:04:04;15.50;99.90
22623;DHT22;11478;51.094;7.030;2024-03-17T09:06:30;15.20;99.90
22623;DHT22;11478;51.094;7.030;2024-03-17T09:08:56;14.60;99.90
22623;DHT22;11478;51.094;7.030;2024-03-17T09:11:25;14.10;99.90
22623;DHT22;11478;51.094;7.030;2024-03-17T09:13:57;13.50;99.90
22623;DHT22;11478;51.094;7.030;2024-03-17T09:16:24;13.10;99.90
22623;DHT22;11478;51.094;7.030;2024-03-17T09:18:54;12.70;99.90
22623;DHT22;11478;51.094;7.030;2024-03-17T09:21:23;12.50;99.90
22623;DHT22;11478;51.094;7.030;2024-03-17T09:23:51;12.20;99.90
22623;DHT22;11478;51.094;7.030;2024-03-17T09:26:22;12.10;99.90
22623;DHT22;11478;51.094;7.030;2024-03-17T09:28:48;12.00;99.90
22623;DHT22;11478;51.094;7.030;2024-03-17T09:31:26;12.00;99.90
22623;DHT22;11478;51.094;7.030;2024-03-17T09:33:52;12.30;99.90
22623;DHT22;11478;51.094;7.030;2024-03-17T09:36:18;12.70;99.90
22623;DHT22;11478;51.094;7.030;2024-03-17T09:38:46;13.00;99.90
22623;DHT22;11478;51.094;7.030;2024-03-17T09:44:18;12.80;99.90
22623;DHT22;11478;51.094;7.030;2024-03-17T09:46:44;12.50;99.90
22623;DHT22;11478;51.094;7.030;2024-03-17T09:49:18;12.30;99.90
22623;DHT22;11478;51.094;7.030;2024-03-17T09:51:48;12.30;99.90
22623;DHT22;11478;51.094;7.030;2024-03-17T09:54:20;12.30;99.90
22623;DHT22;11478;51.094;7.030;2024-03-17T09:56:55;12.40;99.90
22623;DHT22;11478;51.094;7.030;2024-03-17T09:59:20;12.50;99.90
22623;DHT22;11478;51.094;7.030;2024-03-17T10:01:49;12.60;99.90
22623;DHT22;11478;51.094;7.030;2024-03-17T10:04:38;12.60;99.90
22623;DHT22;11478;51.094;7.030;2024-03-17T10:07:05;12.60;99.90
22623;DHT22;11478;51.094;7.030;2024-03-17T10:09:31;12.50;99.90
22623;DHT22;11478;51.094;7.030;2024-03-17T10:11:59;12.40;99.90
22623;DHT22;11478;51.094;7.030;2024-03-17T10:14:25;12.50;99.90
22623;DHT22;11478;51.094;7.030;2024-03-17T10:17:09;12.40;99.90
22623;DHT22;11478;51.094;7.030;2024-03-17T10:19:36;12.30;99.90
22623;DHT22;11478;51.094;7.030;2024-03-17T10:22:12;12.50;99.90
22623;DHT22;11478;51.094;7.030;2024-03-17T10:24:38;12.70;99.90
22623;DHT22;11478;51.094;7.030;2024-03-17T10:27:04;12.80;99.90
22623;DHT22;11478;51.094;7.030;2024-03-17T10:29:43;12.90;99.90
22623;DHT22;11478;51.094;7.030;2024-03-17T10:32:14;12.80;99.90
22623;DHT22;11478;51.094;7.030;2024-03-17T10:34:42;12.70;99.90
22623;DHT22;11478;51.094;7.030;2024-03-17T10:37:21;12.50;99.90
22623;DHT22;11478;51.094;7.030;2024-03-17T10:39:53;12.40;99.90
22623;DHT22;11478;51.094;7.030;2024-03-17T10:42:28;12.30;99.90
22623;DHT22;11478;51.094;7.030;2024-03-17T10:44:54;12.20;99.90
22623;DHT22;11478;51.094;7.030;2024-03-17T10:47:25;12.10;99.90
22623;DHT22;11478;51.094;7.030;2024-03-17T10:49:52;12.10;99.90
22623;DHT22;11478;51.094;7.030;2024-03-17T10:52:24;12.10;99.90
22623;DHT22;11478;51.094;7.030;2024-03-17T10:54:57;12.20;99.90
22623;DHT22;11478;51.094;7.030;2024-03-17T11:00:04;12.40;99.90
22623;DHT22;11478;51.094;7.030;2024-03-17T11:02:31;12.40;99.90
22623;DHT22;11478;51.094;7.030;2024-03-17T11:05:03;12.50;99.90
22623;DHT22;11478;51.094;7.030;2024-03-17T11:07:33;12.50;99.90
22623;DHT22;11478;51.094;7.030;2024-03-17T11:10:03;12.70;99.90
22623;DHT22;11478;51.094;7.030;2024-03-17T11:15:56;12.80;99.90
22623;DHT22;11478;51.094;7.030;2024-03-17T11:19:05;12.90;99.90
22623;DHT22;11478;51.094;7.030;2024-03-17T11:21:42;13.00;99.90
22623;DHT22;11478;51.094;7.030;2024-03-17T11:24:30;13.30;99.90
22623;DHT22;11478;51.094;7.030;2024-03-17T11:26:58;13.50;99.90
22623;DHT22;11478;51.094;7.030;2024-03-17T11:29:36;13.70;99.90
22623;DHT22;11478;51.094;7.030;2024-03-17T11:32:31;13.90;99.90
22623;DHT22;11478;51.094;7.030;2024-03-17T11:35:16;14.00;99.90
22623;DHT22;11478;51.094;7.030;2024-03-17T11:37:54;14.00;99.90
22623;DHT22;11478;51.094;7.030;2024-03-17T11:40:33;14.30;99.90
22623;DHT22;11478;51.094;7.030;2024-03-17T11:43:03;14.50;99.90
22623;DHT22;11478;51.094;7.030;2024-03-17T11:45:33;14.60;99.90
22623;DHT22;11478;51.094;7.030;2024-03-17T11:48:06;14.70;99.90
22623;DHT22;11478;51.094;7.030;2024-03-17T11:50:37;14.90;99.90
22623;DHT22;11478;51.094;7.030;2024-03-17T11:53:26;14.90;99.90
22623;DHT22;11478;51.094;7.030;2024-03-17T11:56:00;14.90;99.90
22623;DHT22;11478;51.094;7.030;2024-03-17T11:58:29;14.90;99.90
22623;DHT22;11478;51.094;7.030;2024-03-17T12:01:06;15.00;99.90
22623;DHT22;11478;51.094;7.030;2024-03-17T12:03:35;15.10;99.90
22623;DHT22;11478;51.094;7.030;2024-03-17T12:06:04;15.20;99.90
22623;DHT22;11478;51.094;7.030;2024-03-17T12:08:38;15.40;99.90
22623;DHT22;11478;51.094;7.030;2024-03-17T12:11:30;15.60;99.90
22623;DHT22;11478;51.094;7.030;2024-03-17T12:13:59;15.60;99.90
22623;DHT22;11478;51.094;7.030;2024-03-17T12:20:06;15.50;99.90
22623;DHT22;11478;51.094;7.030;2024-03-17T12:22:44;15.50;99.90
22623;DHT22;11478;51.094;7.030;2024-03-17T12:25:17;15.40;99.90
22623;DHT22;11478;51.094;7.030;2024-03-17T12:27:44;15.30;99.90
22623;DHT22;11478;51.094;7.030;2024-03-17T12:30:15;15.30;99.90
22623;DHT22;11478;51.094;7.030;2024-03-17T12:32:44;15.30;99.90
22623;DHT22;11478;51.094;7.030;2024-03-17T12:35:15;15.30;99.90
22623;DHT22;11478;51.094;7.030;2024-03-17T12:37:44;15.30;99.90
22623;DHT22;11478;51.094;7.030;2024-03-17T12:40:41;15.50;99.90
22623;DHT22;11478;51.094;7.030;2024-03-17T12:43:29;15.40;99.90
22623;DHT22;11478;51.094;7.030;2024-03-17T12:45:56;15.40;99.90
22623;DHT22;11478;51.094;7.030;2024-03-17T12:48:29;15.40;99.90
22623;DHT22;11478;51.094;7.030;2024-03-17T12:50:59;15.20;99.90
22623;DHT22;11478;51.094;7.030;2024-03-17T12:53:32;15.10;99.90
22623;DHT22;11478;51.094;7.030;2024-03-17T12:56:03;15.10;99.90
22623;DHT22;11478;51.094;7.030;2024-03-17T12:58:50;15.00;99.90
22623;DHT22;11478;51.094;7.030;2024-03-17T13:01:34;15.00;99.90
22623;DHT22;11478;51.094;7.030;2024-03-17T13:04:10;15.00;99.90
22623;DHT22;11478;51.094;7.030;2024-03-17T13:06:49;15.10;99.90
22623;DHT22;11478;51.094;7.030;2024-03-17T13:09:18;15.10;99.90
22623;DHT22;11478;51.094;7.030;2024-03-17T13:12:01;15.20;99.90
22623;DHT22;11478;51.094;7.030;2024-03-17T13:14:31;15.10;99.90
22623;DHT22;11478;51.094;7.030;2024-03-17T13:17:00;15.10;99.90
22623;DHT22;11478;51.094;7.030;2024-03-17T13:19:29;15.00;99.90
22623;DHT22;11478;51.094;7.030;2024-03-17T13:21:58;14.90;99.90
22623;DHT22;11478;51.094;7.030;2024-03-17T13:24:32;14.70;99.90
22623;DHT22;11478;51.094;7.030;2024-03-17T13:27:05;14.50;99.90
22623;DHT22;11478;51.094;7.030;2024-03-17T13:29:32;14.40;99.90
22623;DHT22;11478;51.094;7.030;2024-03-17T13:32:05;14.30;99.90
22623;DHT22;11478;51.094;7.030;2024-03-17T13:34:32;14.20;99.90
22623;DHT22;11478;51.094;7.030;2024-03-17T13:37:02;14.10;99.90
22623;DHT22;11478;51.094;7.030;2024-03-17T13:39:32;14.10;99.90
22623;DHT22;11478;51.094;7.030;2024-03-17T13:42:01;14.10;99.90
22623;DHT22;11478;51.094;7.030;2024-03-17T13:44:30;14.00;99.90
22623;DHT22;11478;51.094;7.030;2024-03-17T13:47:05;14.00;99.90
22623;DHT22;11478;51.094;7.030;2024-03-17T13:49:30;13.90;99.90
22623;DHT22;11478;51.094;7.030;2024-03-17T13:52:01;13.90;99.90
22623;DHT22;11478;51.094;7.030;2024-03-17T13:54:33;13.90;99.90
22623;DHT22;11478;51.094;7.030;2024-03-17T13:57:10;13.90;99.90
22623;DHT22;11478;51.094;7.030;2024-03-17T13:59:38;13.80;99.90
22623;DHT22;11478;51.094;7.030;2024-03-17T14:02:12;13.70;99.90
22623;DHT22;11478;51.094;7.030;2024-03-17T14:04:38;13.70;99.90
22623;DHT22;11478;51.094;7.030;2024-03-17T14:07:04;13.60;99.90
22623;DHT22;11478;51.094;7.030;2024-03-17T14:09:33;13.60;99.90
22623;DHT22;11478;51.094;7.030;2024-03-17T14:11:59;13.50;99.90
22623;DHT22;11478;51.094;7.030;2024-03-17T14:14:35;13.50;99.90
22623;DHT22;11478;51.094;7.030;2024-03-17T14:21:00;13.50;99.90
22623;DHT22;11478;51.094;7.030;2024-03-17T14:24:00;13.50;99.90
22623;DHT22;11478;51.094;7.030;2024-03-17T14:26:51;13.60;99.90
22623;DHT22;11478;51.094;7.030;2024-03-17T14:29:37;13.60;99.90
22623;DHT22;11478;51.094;7.030;2024-03-17T14:36:13;13.60;99.90
22623;DHT22;11478;51.094;7.030;2024-03-17T14:39:22;13.70;99.90
22623;DHT22;11478;51.094;7.030;2024-03-17T14:42:39;13.70;99.90
22623;DHT22;11478;51.094;7.030;2024-03-17T14:45:37;13.80;99.90
22623;DHT22;11478;51.094;7.030;2024-03-17T14:48:04;13.80;99.90
22623;DHT22;11478;51.094;7.030;2024-03-17T14:50:37;13.90;99.90
22623;DHT22;11478;51.094;7.030;2024-03-17T14:53:06;13.90;99.90
22623;DHT22;11478;51.094;7.030;2024-03-17T14:55:33;14.00;99.90
22623;DHT22;11478;51.094;7.030;2024-03-17T14:58:06;14.00;99.90
22623;DHT22;11478;51.094;7.030;2024-03-17T15:00:32;14.00;99.90
22623;DHT22;11478;51.094;7.030;2024-03-17T15:03:01;14.00;99.90
22623;DHT22;11478;51.094;7.030;2024-03-17T15:05:31;14.10;99.90
22623;DHT22;11478;51.094;7.030;2024-03-17T15:08:16;14.10;99.90
22623;DHT22;11478;51.094;7.030;2024-03-17T15:10:41;14.10;99.90
22623;DHT22;11478;51.094;7.030;2024-03-17T15:13:13;14.10;99.90
22623;DHT22;11478;51.094;7.030;2024-03-17T15:15:40;14.20;99.90
22623;DHT22;11478;51.094;7.030;2024-03-17T15:18:34;14.20;99.90
22623;DHT22;11478;51.094;7.030;2024-03-17T15:21:01;14.30;99.90
22623;DHT22;11478;51.094;7.030;2024-03-17T15:23:36;14.30;99.90
22623;DHT22;11478;51.094;7.030;2024-03-17T15:26:16;14.20;99.90
22623;DHT22;11478;51.094;7.030;2024-03-17T15:28:45;14.10;99.90
22623;DHT22;11478;51.094;7.030;2024-03-17T15:31:14;14.00;99.90
22623;DHT22;11478;51.094;7.030;2024-03-17T15:33:40;14.00;99.90
22623;DHT22;11478;51.094;7.030;2024-03-17T15:36:13;14.00;99.90
22623;DHT22;11478;51.094;7.030;2024-03-17T15:38:42;14.00;99.90
22623;DHT22;11478;51.094;7.030;2024-03-17T15:41:14;14.00;99.90
22623;DHT22;11478;51.094;7.030;2024-03-17T15:43:50;14.00;99.90
22623;DHT22;11478;51.094;7.030;2024-03-17T15:46:20;14.00;99.90
22623;DHT22;11478;51.094;7.030;2024-03-17T15:49:02;13.90;99.90
22623;DHT22;11478;51.094;7.030;2024-03-17T15:51:35;13.90;99.90
22623;DHT22;11478;51.094;7.030;2024-03-17T15:54:03;13.90;99.90
22623;DHT22;11478;51.094;7.030;2024-03-17T15:56:36;13.80;99.90
22623;DHT22;11478;51.094;7.030;2024-03-17T15:59:05;13.80;99.90
22623;DHT22;11478;51.094;7.030;2024-03-17T16:01:43;13.80;99.90
22623;DHT22;11478;51.094;7.030;2024-03-17T16:04:09;13.80;99.90
22623;DHT22;11478;51.094;7.030;2024-03-17T16:06:39;13.70;99.90
22623;DHT22;11478;51.094;7.030;2024-03-17T16:09:09;13.80;99.90
22623;DHT22;11478;51.094;7.030;2024-03-17T16:11:38;13.70;99.90
22623;DHT22;11478;51.094;7.030;2024-03-17T16:14:06;13.70;99.90
22623;DHT22;11478;51.094;7.030;2024-03-17T16:16:34;13.70;99.90
22623;DHT22;11478;51.094;7.030;2024-03-17T16:19:05;13.70;99.90
22623;DHT22;11478;51.094;7.030;2024-03-17T16:21:36;13.80;99.90